createdAt,value
2018-11-21T00:01:01.494Z,19
2018-11-21T00:02:03.678Z,19
2018-11-21T00:03:05.286Z,18.9
2018-11-21T00:04:07.478Z,19
2018-11-21T00:05:09.912Z,18.9
2018-11-21T00:06:12.048Z,18.9
2018-11-21T00:07:14.469Z,18.8
2018-11-21T00:08:16.903Z,18.9
2018-11-21T00:09:19.351Z,19
2018-11-21T00:10:21.768Z,18.9
2018-11-21T00:11:23.938Z,19
2018-11-21T00:12:26.104Z,19.1
2018-11-21T00:13:28.280Z,19
2018-11-21T00:14:30.715Z,19
2018-11-21T00:15:33.139Z,19.1
2018-11-21T00:16:35.298Z,19.2
2018-11-21T00:17:37.487Z,19
2018-11-21T00:18:39.360Z,19.1
2018-11-21T00:19:41.788Z,19.2
2018-11-21T00:20:44.228Z,19.1
2018-11-21T00:21:46.108Z,19.2
2018-11-21T00:22:48.539Z,19.1
2018-11-21T00:23:50.698Z,19.1
2018-11-21T00:24:53.137Z,19.1
2018-11-21T00:25:55.281Z,19.2
2018-11-21T00:26:57.448Z,19.2
2018-11-21T00:27:59.612Z,19.3
2018-11-21T00:29:01.494Z,19.3
2018-11-21T00:30:03.640Z,19.2
2018-11-21T00:31:05.230Z,19.3
2018-11-21T00:32:07.663Z,19.5
2018-11-21T00:33:09.828Z,19.4
2018-11-21T00:34:12.258Z,19.3
2018-11-21T00:35:14.126Z,19.2
2018-11-21T00:36:16.568Z,19.3
2018-11-21T00:37:18.187Z,19.5
2018-11-21T00:38:20.348Z,19.3
2018-11-21T00:39:22.245Z,19.3
2018-11-21T00:40:24.678Z,19.4
2018-11-21T00:41:27.110Z,19.5
2018-11-21T00:42:29.260Z,19.4
2018-11-21T00:43:31.404Z,19.4
2018-11-21T00:44:33.554Z,19.3
2018-11-21T00:45:35.416Z,19.4
2018-11-21T00:46:37.567Z,19.3
2018-11-21T00:47:40.004Z,19.3
2018-11-21T00:48:42.139Z,19.5
2018-11-21T00:49:44.298Z,19.5
2018-11-21T00:50:45.924Z,19.4
2018-11-21T00:51:47.990Z,19.5
2018-11-21T00:52:50.412Z,19.5
2018-11-21T00:53:52.558Z,19.6
2018-11-21T00:54:54.446Z,19.6
2018-11-21T00:55:56.878Z,19.5
2018-11-21T00:57:00.576Z,19.5
2018-11-21T00:58:02.450Z,19.4
2018-11-21T00:59:04.072Z,19.5
2018-11-21T01:00:06.509Z,19.5
2018-11-21T01:01:08.361Z,19.5
2018-11-21T01:02:10.248Z,19.5
2018-11-21T01:03:12.408Z,19.5
2018-11-21T01:04:14.840Z,19.6
2018-11-21T01:05:16.695Z,19.5
2018-11-21T01:06:18.826Z,19.5
2018-11-21T01:07:20.718Z,19.5
2018-11-21T01:08:23.137Z,19.5
2018-11-21T01:09:25.577Z,19.5
2018-11-21T01:10:27.705Z,19.6
2018-11-21T01:11:30.147Z,19.6
2018-11-21T01:12:32.588Z,19.5
2018-11-21T01:13:35.014Z,19.5
2018-11-21T01:14:37.448Z,19.7
2018-11-21T01:15:39.057Z,19.6
2018-11-21T01:16:41.230Z,19.5
2018-11-21T01:17:43.096Z,19.5
2018-11-21T01:18:45.253Z,19.6
2018-11-21T01:19:47.128Z,19.6
2018-11-21T01:20:49.566Z,19.4
2018-11-21T01:21:52.009Z,19.6
2018-11-21T01:22:53.892Z,19.5
2018-11-21T01:23:56.063Z,19.6
2018-11-21T01:24:58.216Z,19.5
2018-11-21T01:26:00.073Z,19.6
2018-11-21T01:27:02.225Z,19.5
2018-11-21T01:28:04.081Z,19.6
2018-11-21T01:29:06.236Z,19.7
2018-11-21T01:30:08.666Z,19.5
2018-11-21T01:31:11.091Z,19.6
2018-11-21T01:32:13.505Z,19.6
2018-11-21T01:33:15.971Z,19.6
2018-11-21T01:34:18.397Z,19.6
2018-11-21T01:35:20.820Z,19.6
2018-11-21T01:36:22.956Z,19.6
2018-11-21T01:37:25.380Z,19.7
2018-11-21T01:38:26.956Z,19.4
2018-11-21T01:39:29.116Z,19.5
2018-11-21T01:40:31.267Z,19.6
2018-11-21T01:41:32.854Z,19.7
2018-11-21T01:42:34.989Z,19.6
2018-11-21T01:43:37.135Z,19.5
2018-11-21T01:44:39.289Z,19.6
2018-11-21T01:45:41.714Z,19.4
2018-11-21T01:46:44.151Z,19.7
2018-11-21T01:47:46.578Z,19.5
2018-11-21T01:48:48.740Z,19.6
2018-11-21T01:49:51.195Z,19.6
2018-11-21T01:50:53.365Z,19.6
2018-11-21T01:51:55.798Z,19.7
2018-11-21T01:52:57.706Z,19.7
2018-11-21T01:53:59.867Z,19.5
2018-11-21T01:55:02.013Z,19.6
2018-11-21T01:56:04.166Z,19.7
2018-11-21T01:57:06.594Z,19.7
2018-11-21T01:58:08.458Z,19.7
2018-11-21T01:59:10.898Z,19.5
2018-11-21T02:00:13.036Z,19.6
2018-11-21T02:01:15.197Z,19.6
2018-11-21T02:02:17.068Z,19.6
2018-11-21T02:03:19.208Z,19.7
2018-11-21T02:04:21.355Z,19.5
2018-11-21T02:05:23.224Z,19.6
2018-11-21T02:06:25.377Z,19.6
2018-11-21T02:07:27.526Z,19.7
2018-11-21T02:08:29.698Z,19.6
2018-11-21T02:09:32.124Z,19.4
2018-11-21T02:10:33.997Z,19.6
2018-11-21T02:11:35.861Z,19.8
2018-11-21T02:12:38.037Z,19.8
2018-11-21T02:13:39.953Z,19.7
2018-11-21T02:14:42.116Z,19.5
2018-11-21T02:15:44.248Z,19.8
2018-11-21T02:16:46.405Z,19.7
2018-11-21T02:17:48.840Z,19.5
2018-11-21T02:18:50.987Z,19.7
2018-11-21T02:19:53.422Z,19.7
2018-11-21T02:20:55.842Z,19.6
2018-11-21T02:21:58.266Z,19.5
2018-11-21T02:23:00.712Z,19.8
2018-11-21T02:24:02.868Z,19.6
2018-11-21T02:25:05.007Z,19.6
2018-11-21T02:26:07.467Z,19.7
2018-11-21T02:27:09.596Z,19.5
2018-11-21T02:28:11.461Z,19.6
2018-11-21T02:29:13.585Z,19.7
2018-11-21T02:30:16.021Z,19.8
2018-11-21T02:31:18.453Z,20
2018-11-21T02:32:20.583Z,19.6
2018-11-21T02:33:23.026Z,19.8
2018-11-21T02:34:25.447Z,19.8
2018-11-21T02:35:27.893Z,19.6
2018-11-21T02:36:30.366Z,19.5
2018-11-21T02:37:32.797Z,19.8
2018-11-21T02:38:34.944Z,19.8
2018-11-21T02:39:37.079Z,19.9
2018-11-21T02:40:38.961Z,19.6
2018-11-21T02:41:40.277Z,19.5
2018-11-21T02:42:42.707Z,19.6
2018-11-21T02:43:44.851Z,19.5
2018-11-21T02:44:46.714Z,19.7
2018-11-21T02:45:49.138Z,19.6
2018-11-21T02:46:51.291Z,19.7
2018-11-21T02:47:53.443Z,19.5
2018-11-21T02:48:55.597Z,19.7
2018-11-21T02:49:57.218Z,19.5
2018-11-21T02:50:58.825Z,19.5
2018-11-21T02:52:00.425Z,19.5
2018-11-21T02:53:02.025Z,19.6
2018-11-21T02:54:04.184Z,19.6
2018-11-21T02:55:06.623Z,19.6
2018-11-21T02:56:09.060Z,19.6
2018-11-21T02:57:11.487Z,19.7
2018-11-21T02:58:13.928Z,19.6
2018-11-21T02:59:16.375Z,19.7
2018-11-21T03:00:18.543Z,19.6
2018-11-21T03:01:20.681Z,19.6
2018-11-21T03:02:22.543Z,19.8
2018-11-21T03:03:24.412Z,19.7
2018-11-21T03:04:26.296Z,19.6
2018-11-21T03:05:28.461Z,19.5
2018-11-21T03:06:30.899Z,19.5
2018-11-21T03:07:32.788Z,19.6
2018-11-21T03:08:34.937Z,19.8
2018-11-21T03:09:36.813Z,19.7
2018-11-21T03:10:38.688Z,19.7
2018-11-21T03:11:40.848Z,19.7
2018-11-21T03:12:42.995Z,19.6
2018-11-21T03:13:44.866Z,19.6
2018-11-21T03:14:47.016Z,19.7
2018-11-21T03:15:49.445Z,19.7
2018-11-21T03:16:51.587Z,19.7
2018-11-21T03:17:53.735Z,19.7
2018-11-21T03:18:55.908Z,19.7
2018-11-21T03:19:58.077Z,19.7
2018-11-21T03:21:00.245Z,19.8
2018-11-21T03:22:02.408Z,19.7
2018-11-21T03:23:04.566Z,19.6
2018-11-21T03:24:06.695Z,19.6
2018-11-21T03:25:08.831Z,19.7
2018-11-21T03:26:10.958Z,19.7
2018-11-21T03:27:13.109Z,19.7
2018-11-21T03:28:15.265Z,19.6
2018-11-21T03:29:17.148Z,19.6
2018-11-21T03:30:19.289Z,19.7
2018-11-21T03:31:21.442Z,19.6
2018-11-21T03:32:23.924Z,19.9
2018-11-21T03:33:26.356Z,19.7
2018-11-21T03:34:28.786Z,19.7
2018-11-21T03:35:30.944Z,19.6
2018-11-21T03:36:33.359Z,19.6
2018-11-21T03:37:34.947Z,19.7
2018-11-21T03:38:37.388Z,19.7
2018-11-21T03:39:39.547Z,19.7
2018-11-21T03:40:41.445Z,19.6
2018-11-21T03:41:43.588Z,19.7
2018-11-21T03:42:46.013Z,19.6
2018-11-21T03:43:48.442Z,19.6
2018-11-21T03:44:50.596Z,19.8
2018-11-21T03:45:52.477Z,19.6
2018-11-21T03:46:54.905Z,19.7
2018-11-21T03:47:57.027Z,19.7
2018-11-21T03:48:59.459Z,19.8
2018-11-21T03:50:01.618Z,19.6
2018-11-21T03:51:04.032Z,19.6
2018-11-21T03:52:06.203Z,19.6
2018-11-21T03:53:08.068Z,19.7
2018-11-21T03:54:10.496Z,19.7
2018-11-21T03:55:12.657Z,19.7
2018-11-21T03:56:14.801Z,19.6
2018-11-21T03:57:17.227Z,19.7
2018-11-21T03:58:19.657Z,19.6
2018-11-21T03:59:22.102Z,19.5
2018-11-21T04:00:24.259Z,19.5
2018-11-21T04:01:26.685Z,19.7
2018-11-21T04:02:28.573Z,19.6
2018-11-21T04:03:30.997Z,19.7
2018-11-21T04:04:32.298Z,19.5
2018-11-21T04:05:34.453Z,19.6
2018-11-21T04:06:36.048Z,19.5
2018-11-21T04:07:37.925Z,19.5
2018-11-21T04:09:44.850Z,19.5
2018-11-21T04:10:47.006Z,19.5
2018-11-21T04:11:48.876Z,19.6
2018-11-21T04:12:51.296Z,19.5
2018-11-21T04:13:53.435Z,19.4
2018-11-21T04:14:55.610Z,19.3
2018-11-21T04:15:57.765Z,19.5
2018-11-21T04:17:00.197Z,19.6
2018-11-21T04:18:01.800Z,19.4
2018-11-21T04:19:03.673Z,19.5
2018-11-21T04:20:06.100Z,19.4
2018-11-21T04:21:08.541Z,19.3
2018-11-21T04:22:10.973Z,19.4
2018-11-21T04:23:13.092Z,19.3
2018-11-21T04:24:15.221Z,19.3
2018-11-21T04:25:17.645Z,19.2
2018-11-21T04:26:19.805Z,19.3
2018-11-21T04:27:21.959Z,19.4
2018-11-21T04:28:24.108Z,19.3
2018-11-21T04:29:26.268Z,19.2
2018-11-21T04:30:28.420Z,19.4
2018-11-21T04:31:30.842Z,19.2
2018-11-21T04:32:33.007Z,19.2
2018-11-21T04:33:35.157Z,19.3
2018-11-21T04:34:36.497Z,19.3
2018-11-21T04:35:38.683Z,19.2
2018-11-21T04:36:40.830Z,19.3
2018-11-21T04:37:43.473Z,19.3
2018-11-21T04:38:46.541Z,19.3
2018-11-21T04:39:48.697Z,19.2
2018-11-21T04:40:50.882Z,19.3
2018-11-21T04:41:53.038Z,19.3
2018-11-21T04:42:55.491Z,19.2
2018-11-21T04:43:57.665Z,19.3
2018-11-21T04:44:59.845Z,19.2
2018-11-21T04:46:02.020Z,19.3
2018-11-21T04:47:04.178Z,19.2
2018-11-21T04:48:06.637Z,19.2
2018-11-21T04:49:08.804Z,19.3
2018-11-21T04:50:11.244Z,19.2
2018-11-21T04:51:13.411Z,19.3
2018-11-21T04:52:15.570Z,19.3
2018-11-21T04:53:18.028Z,19.2
2018-11-21T04:54:19.919Z,19.3
2018-11-21T04:55:22.099Z,19.1
2018-11-21T04:56:24.325Z,19.3
2018-11-21T04:57:26.786Z,19.2
2018-11-21T04:58:29.255Z,19.2
2018-11-21T04:59:31.424Z,19.2
2018-11-21T05:00:33.311Z,19.2
2018-11-21T05:01:35.524Z,19
2018-11-21T05:02:37.202Z,19.1
2018-11-21T05:03:39.105Z,19.1
2018-11-21T05:04:41.551Z,19
2018-11-21T05:05:43.978Z,19.2
2018-11-21T05:06:46.398Z,19.2
2018-11-21T05:07:48.834Z,19.1
2018-11-21T05:08:51.259Z,19.2
2018-11-21T05:09:53.145Z,19.1
2018-11-21T05:10:55.585Z,19.1
2018-11-21T05:11:57.161Z,19.1
2018-11-21T05:12:59.319Z,19.1
2018-11-21T05:14:01.448Z,19.2
2018-11-21T05:15:03.649Z,19.1
2018-11-21T05:16:06.067Z,19.2
2018-11-21T05:17:08.196Z,19.1
2018-11-21T05:18:10.098Z,19.2
2018-11-21T05:19:12.258Z,19.1
2018-11-21T05:20:14.418Z,19.1
2018-11-21T05:21:16.561Z,19.1
2018-11-21T05:22:18.441Z,19.1
2018-11-21T05:23:20.601Z,19.2
2018-11-21T05:24:22.756Z,19.1
2018-11-21T05:25:24.360Z,19.3
2018-11-21T05:26:26.525Z,19.2
2018-11-21T05:27:28.693Z,19.1
2018-11-21T05:28:30.848Z,19.1
2018-11-21T05:29:33.009Z,19.1
2018-11-21T05:30:35.151Z,19.2
2018-11-21T05:31:37.030Z,19.2
2018-11-21T05:32:38.912Z,19.1
2018-11-21T05:33:41.074Z,19.1
2018-11-21T05:34:42.688Z,19.2
2018-11-21T05:35:45.114Z,19
2018-11-21T05:36:47.278Z,19.1
2018-11-21T05:37:48.867Z,19
2018-11-21T05:38:51.042Z,19
2018-11-21T05:39:52.631Z,19.1
2018-11-21T05:40:54.484Z,18.9
2018-11-21T05:41:56.648Z,19.1
2018-11-21T05:42:59.073Z,19.2
2018-11-21T05:44:01.218Z,19
2018-11-21T05:45:03.386Z,19.1
2018-11-21T05:46:05.799Z,19.1
2018-11-21T05:47:08.229Z,19.1
2018-11-21T05:48:10.388Z,19
2018-11-21T05:49:12.539Z,19
2018-11-21T05:50:14.966Z,19.1
2018-11-21T05:51:17.118Z,19.1
2018-11-21T05:52:19.288Z,19
2018-11-21T05:53:21.457Z,18.9
2018-11-21T05:54:23.049Z,19
2018-11-21T05:55:24.932Z,19
2018-11-21T05:56:26.820Z,19
2018-11-21T05:57:28.968Z,19
2018-11-21T05:58:31.447Z,19
2018-11-21T05:59:33.114Z,19.1
2018-11-21T06:00:35.307Z,19.1
2018-11-21T06:01:37.482Z,19.1
2018-11-21T06:02:39.355Z,19.1
2018-11-21T06:03:41.790Z,19.1
2018-11-21T06:04:44.210Z,19
2018-11-21T06:05:46.096Z,19
2018-11-21T06:06:48.510Z,19
2018-11-21T06:07:50.949Z,19
2018-11-21T06:08:53.380Z,19.1
2018-11-21T06:09:55.811Z,19.1
2018-11-21T06:10:57.948Z,19.1
2018-11-21T06:13:05.366Z,19.1
2018-11-21T06:14:07.800Z,18.9
2018-11-21T06:15:10.226Z,19
2018-11-21T06:16:12.086Z,19
2018-11-21T06:17:14.259Z,19.1
2018-11-21T06:18:16.410Z,19
2018-11-21T06:19:18.295Z,19.2
2018-11-21T06:20:20.438Z,19
2018-11-21T06:21:22.875Z,19
2018-11-21T06:22:25.074Z,19
2018-11-21T06:23:27.298Z,19
2018-11-21T06:24:29.722Z,19
2018-11-21T06:25:31.878Z,19
2018-11-21T06:26:34.049Z,19
2018-11-21T06:27:36.219Z,19.1
2018-11-21T06:28:38.075Z,19
2018-11-21T06:29:40.514Z,19
2018-11-21T06:30:42.405Z,19
2018-11-21T06:31:44.293Z,19
2018-11-21T06:32:46.729Z,18.9
2018-11-21T06:33:49.152Z,19
2018-11-21T06:34:51.049Z,19
2018-11-21T06:35:53.479Z,19
2018-11-21T06:36:55.908Z,19.1
2018-11-21T06:37:58.039Z,19
2018-11-21T06:39:00.471Z,18.9
2018-11-21T06:40:02.908Z,18.8
2018-11-21T06:41:05.335Z,19
2018-11-21T06:42:07.496Z,19
2018-11-21T06:43:09.959Z,19
2018-11-21T06:44:12.377Z,19
2018-11-21T06:45:14.819Z,18.9
2018-11-21T06:46:16.718Z,18.9
2018-11-21T06:47:19.144Z,18.8
2018-11-21T06:48:21.578Z,19
2018-11-21T06:49:23.451Z,19
2018-11-21T06:50:25.878Z,18.9
2018-11-21T06:51:28.307Z,19
2018-11-21T06:52:34.248Z,19
2018-11-21T06:53:36.668Z,19
2018-11-21T06:54:39.098Z,19.1
2018-11-21T06:55:41.534Z,19
2018-11-21T06:56:45.079Z,18.9
2018-11-21T06:57:47.497Z,19
2018-11-21T06:59:54.893Z,19
2018-11-21T07:00:57.317Z,19
2018-11-21T07:01:59.239Z,19
2018-11-21T07:03:01.679Z,19.1
2018-11-21T07:04:04.121Z,19
2018-11-21T07:05:06.549Z,18.9
2018-11-21T07:06:08.711Z,18.9
2018-11-21T07:07:11.145Z,18.9
2018-11-21T07:08:13.573Z,18.8
2018-11-21T07:09:15.988Z,19
2018-11-21T07:10:18.418Z,18.9
2018-11-21T07:11:20.859Z,19
2018-11-21T07:12:22.989Z,19
2018-11-21T07:13:25.407Z,19
2018-11-21T07:14:27.565Z,18.9
2018-11-21T07:15:29.989Z,19
2018-11-21T07:16:32.418Z,19
2018-11-21T07:17:34.849Z,19
2018-11-21T07:18:37.276Z,19
2018-11-21T07:19:39.729Z,18.9
2018-11-21T07:20:41.358Z,18.9
2018-11-21T07:21:43.493Z,18.9
2018-11-21T07:22:45.915Z,19
2018-11-21T07:23:48.334Z,18.9
2018-11-21T07:24:50.756Z,18.9
2018-11-21T07:25:53.196Z,18.9
2018-11-21T07:26:55.636Z,19
2018-11-21T07:27:58.057Z,18.9
2018-11-21T07:29:00.192Z,18.9
2018-11-21T07:30:02.636Z,19
2018-11-21T07:31:05.060Z,18.9
2018-11-21T07:32:07.242Z,18.9
2018-11-21T07:33:09.688Z,18.9
2018-11-21T07:34:11.848Z,18.9
2018-11-21T07:36:19.264Z,18.9
2018-11-21T07:37:21.689Z,18.9
2018-11-21T07:38:24.121Z,19
2018-11-21T07:39:26.582Z,19
2018-11-21T07:40:28.999Z,18.9
2018-11-21T07:41:31.430Z,19
2018-11-21T07:42:33.851Z,19
2018-11-21T07:43:36.291Z,18.9
2018-11-21T07:44:38.721Z,19
2018-11-21T07:45:41.157Z,19
2018-11-21T07:46:43.589Z,19
2018-11-21T07:47:45.734Z,18.9
2018-11-21T07:48:47.877Z,19
2018-11-21T07:49:50.029Z,18.9
2018-11-21T07:50:52.459Z,18.9
2018-11-21T07:51:54.889Z,18.9
2018-11-21T07:52:57.327Z,18.8
2018-11-21T07:53:59.759Z,18.9
2018-11-21T07:55:02.186Z,19
2018-11-21T07:56:04.619Z,18.9
2018-11-21T07:57:06.755Z,18.9
2018-11-21T07:58:09.177Z,18.8
2018-11-21T07:59:11.611Z,18.8
2018-11-21T08:00:14.033Z,18.9
2018-11-21T08:01:16.493Z,18.8
2018-11-21T08:02:18.937Z,18.8
2018-11-21T08:03:21.372Z,18.9
2018-11-21T08:04:23.797Z,18.8
2018-11-21T08:05:26.240Z,18.9
2018-11-21T08:06:28.667Z,18.8
2018-11-21T08:07:31.101Z,18.8
2018-11-21T08:08:33.251Z,18.9
2018-11-21T08:09:35.672Z,18.8
2018-11-21T08:10:38.100Z,18.9
2018-11-21T08:11:40.236Z,19.1
2018-11-21T08:12:42.678Z,19
2018-11-21T08:13:45.109Z,19
2018-11-21T08:14:47.267Z,19
2018-11-21T08:15:49.683Z,18.9
2018-11-21T08:16:52.327Z,18.9
2018-11-21T08:17:54.761Z,18.9
2018-11-21T08:18:56.927Z,18.9
2018-11-21T08:19:59.349Z,19.1
2018-11-21T08:21:01.799Z,18.9
2018-11-21T08:22:04.229Z,19
2018-11-21T08:23:06.656Z,18.9
2018-11-21T08:24:09.104Z,18.9
2018-11-21T08:25:11.537Z,18.8
2018-11-21T08:26:13.969Z,18.9
2018-11-21T08:27:16.119Z,19
2018-11-21T08:28:18.548Z,18.9
2018-11-21T08:29:20.979Z,18.9
2018-11-21T08:30:23.419Z,18.9
2018-11-21T08:31:25.843Z,18.9
2018-11-21T08:32:28.262Z,18.9
2018-11-21T08:34:35.675Z,18.9
2018-11-21T08:35:38.101Z,18.9
2018-11-21T08:36:40.527Z,19
2018-11-21T08:37:42.676Z,19
2018-11-21T08:38:44.869Z,18.9
2018-11-21T08:39:47.301Z,18.9
2018-11-21T08:40:49.739Z,18.9
2018-11-21T08:41:52.163Z,18.8
2018-11-21T08:42:54.585Z,18.9
2018-11-21T08:44:59.001Z,18.9
2018-11-21T08:46:01.439Z,18.9
2018-11-21T08:47:03.870Z,18.9
2018-11-21T08:48:06.297Z,18.8
2018-11-21T08:49:08.450Z,19
2018-11-21T08:50:10.880Z,18.9
2018-11-21T08:51:13.017Z,18.9
2018-11-21T08:52:15.187Z,18.8
2018-11-21T08:53:17.611Z,18.9
2018-11-21T08:54:20.041Z,18.9
2018-11-21T08:55:22.461Z,18.9
2018-11-21T08:56:24.883Z,18.8
2018-11-21T08:57:27.309Z,18.7
2018-11-21T08:58:29.739Z,18.8
2018-11-21T08:59:32.177Z,18.8
2018-11-21T09:00:34.613Z,18.9
2018-11-21T09:01:37.037Z,18.9
2018-11-21T09:02:39.479Z,18.8
2018-11-21T09:03:41.902Z,18.8
2018-11-21T09:04:44.339Z,18.9
2018-11-21T09:05:46.767Z,18.9
2018-11-21T09:06:49.200Z,18.9
2018-11-21T09:07:51.626Z,18.9
2018-11-21T09:08:54.071Z,18.9
2018-11-21T09:09:56.509Z,18.9
2018-11-21T09:10:58.937Z,18.8
2018-11-21T09:12:01.352Z,18.9
2018-11-21T09:13:03.776Z,18.8
2018-11-21T09:14:05.670Z,18.9
2018-11-21T09:15:08.106Z,18.8
2018-11-21T09:16:10.545Z,18.9
2018-11-21T09:17:12.980Z,18.9
2018-11-21T09:18:15.408Z,19
2018-11-21T09:19:17.843Z,18.9
2018-11-21T09:20:20.263Z,18.8
2018-11-21T09:21:22.150Z,18.9
2018-11-21T09:22:24.613Z,19.1
2018-11-21T09:23:26.846Z,18.9
2018-11-21T09:24:29.316Z,19
2018-11-21T09:25:31.747Z,18.8
2018-11-21T09:26:33.599Z,18.9
2018-11-21T09:27:36.029Z,18.8
2018-11-21T09:28:38.453Z,18.9
2018-11-21T09:29:40.874Z,18.9
2018-11-21T09:30:43.301Z,18.8
2018-11-21T09:31:45.738Z,18.8
2018-11-21T09:32:48.162Z,19
2018-11-21T09:33:50.600Z,18.8
2018-11-21T09:35:07.687Z,18.9
2018-11-21T09:36:09.831Z,18.9
2018-11-21T09:37:12.275Z,19
2018-11-21T09:38:14.700Z,18.9
2018-11-21T09:39:17.126Z,18.9
2018-11-21T09:40:19.545Z,18.9
2018-11-21T09:41:21.972Z,18.8
2018-11-21T09:42:24.414Z,18.9
2018-11-21T09:43:26.992Z,18.8
2018-11-21T09:44:28.885Z,18.9
2018-11-21T09:45:31.316Z,18.9
2018-11-21T09:46:33.179Z,18.9
2018-11-21T09:47:35.624Z,18.8
2018-11-21T09:48:37.777Z,18.8
2018-11-21T09:49:39.938Z,18.9
2018-11-21T09:50:42.370Z,18.9
2018-11-21T09:51:44.792Z,18.8
2018-11-21T09:53:51.921Z,18.8
2018-11-21T09:54:54.344Z,18.8
2018-11-21T09:55:56.790Z,18.9
2018-11-21T09:56:59.229Z,18.9
2018-11-21T09:58:01.656Z,18.8
2018-11-21T09:59:04.089Z,18.8
2018-11-21T10:00:06.528Z,18.8
2018-11-21T10:01:08.963Z,18.8
2018-11-21T10:02:11.392Z,18.8
2018-11-21T10:03:13.245Z,18.9
2018-11-21T10:04:15.684Z,18.8
2018-11-21T10:05:18.117Z,18.9
2018-11-21T10:06:20.284Z,18.8
2018-11-21T10:07:22.710Z,18.8
2018-11-21T10:08:25.147Z,18.8
2018-11-21T10:09:27.310Z,18.9
2018-11-21T10:10:29.755Z,18.8
2018-11-21T10:11:32.188Z,18.8
2018-11-21T10:12:34.616Z,18.9
2018-11-21T10:13:36.772Z,18.8
2018-11-21T10:14:39.208Z,18.9
2018-11-21T10:15:41.373Z,18.9
2018-11-21T10:16:43.797Z,18.9
2018-11-21T10:17:46.225Z,18.8
2018-11-21T10:18:48.647Z,18.8
2018-11-21T10:19:51.072Z,18.8
2018-11-21T10:20:53.495Z,18.9
2018-11-21T10:21:55.932Z,18.9
2018-11-21T10:22:58.351Z,18.9
2018-11-21T10:24:00.773Z,18.8
2018-11-21T10:25:03.228Z,18.8
2018-11-21T10:26:05.691Z,18.9
2018-11-21T10:27:08.114Z,19
2018-11-21T10:28:10.539Z,18.9
2018-11-21T10:29:12.961Z,18.9
2018-11-21T10:30:15.399Z,18.8
2018-11-21T10:31:17.839Z,18.8
2018-11-21T10:32:20.271Z,18.9
2018-11-21T10:33:22.697Z,18.8
2018-11-21T10:34:25.122Z,18.9
2018-11-21T10:35:27.556Z,18.9
2018-11-21T10:36:29.988Z,18.9
2018-11-21T10:37:32.148Z,18.9
2018-11-21T10:38:34.616Z,18.8
2018-11-21T10:39:37.030Z,18.8
2018-11-21T10:40:39.175Z,19
2018-11-21T10:41:41.603Z,18.8
2018-11-21T10:42:44.073Z,18.8
2018-11-21T10:43:46.533Z,18.8
2018-11-21T10:44:48.660Z,18.8
2018-11-21T10:45:50.812Z,18.8
2018-11-21T10:46:53.234Z,18.9
2018-11-21T10:47:55.662Z,18.8
2018-11-21T10:48:58.099Z,18.8
2018-11-21T10:50:00.529Z,18.7
2018-11-21T10:51:02.688Z,18.9
2018-11-21T10:52:04.851Z,18.9
2018-11-21T10:53:07.278Z,18.9
2018-11-21T10:54:09.720Z,18.9
2018-11-21T10:55:11.878Z,18.9
2018-11-21T10:56:14.313Z,18.9
2018-11-21T10:57:16.744Z,18.9
2018-11-21T10:58:19.169Z,18.8
2018-11-21T10:59:21.595Z,18.8
2018-11-21T11:00:23.769Z,18.9
2018-11-21T11:01:26.197Z,19
2018-11-21T11:02:28.339Z,18.9
2018-11-21T11:03:30.764Z,18.9
2018-11-21T11:04:33.198Z,18.9
2018-11-21T11:05:35.622Z,18.9
2018-11-21T11:06:37.799Z,18.9
2018-11-21T11:07:40.220Z,18.8
2018-11-21T11:08:42.654Z,18.8
2018-11-21T11:09:44.813Z,18.9
2018-11-21T11:10:47.253Z,18.9
2018-11-21T11:11:49.678Z,18.9
2018-11-21T11:12:52.110Z,18.9
2018-11-21T11:13:54.533Z,18.7
2018-11-21T11:14:56.967Z,18.9
2018-11-21T11:15:59.408Z,18.8
2018-11-21T11:17:01.835Z,18.7
2018-11-21T11:18:04.270Z,18.8
2018-11-21T11:19:06.705Z,18.8
2018-11-21T11:20:09.283Z,19
2018-11-21T11:21:12.241Z,18.8
2018-11-21T11:22:14.387Z,18.8
2018-11-21T11:23:16.816Z,18.9
2018-11-21T11:24:19.266Z,18.9
2018-11-21T11:25:21.701Z,18.8
2018-11-21T11:26:23.578Z,18.9
2018-11-21T11:27:26.015Z,18.8
2018-11-21T11:28:27.924Z,18.8
2018-11-21T11:29:30.087Z,18.9
2018-11-21T11:30:31.958Z,19
2018-11-21T11:31:34.121Z,18.9
2018-11-21T11:32:36.283Z,18.9
2018-11-21T11:33:38.468Z,18.9
2018-11-21T11:34:40.366Z,18.9
2018-11-21T11:35:42.788Z,18.9
2018-11-21T11:36:44.943Z,18.9
2018-11-21T11:37:47.376Z,18.8
2018-11-21T11:38:49.538Z,18.8
2018-11-21T11:39:51.136Z,18.7
2018-11-21T11:40:53.277Z,18.9
2018-11-21T11:41:55.156Z,18.8
2018-11-21T11:42:57.580Z,18.9
2018-11-21T11:44:00.040Z,18.9
2018-11-21T11:45:01.903Z,18.9
2018-11-21T11:46:03.778Z,18.9
2018-11-21T11:47:06.215Z,18.8
2018-11-21T11:48:08.660Z,18.9
2018-11-21T11:49:10.796Z,18.9
2018-11-21T11:50:12.942Z,18.9
2018-11-21T11:51:15.098Z,18.8
2018-11-21T11:52:16.712Z,18.9
2018-11-21T11:53:18.890Z,19
2018-11-21T11:54:21.314Z,18.9
2018-11-21T11:55:23.737Z,18.9
2018-11-21T11:56:25.900Z,18.9
2018-11-21T11:57:27.801Z,18.8
2018-11-21T11:58:29.947Z,18.8
2018-11-21T11:59:32.075Z,18.9
2018-11-21T12:00:34.508Z,18.9
2018-11-21T12:01:36.927Z,18.9
2018-11-21T12:02:39.369Z,19
2018-11-21T12:03:41.799Z,19
2018-11-21T12:04:43.415Z,18.8
2018-11-21T12:05:45.296Z,18.9
2018-11-21T12:06:47.426Z,18.9
2018-11-21T12:07:49.314Z,18.9
2018-11-21T12:08:51.756Z,18.7
2018-11-21T12:09:53.359Z,18.8
2018-11-21T12:10:54.968Z,18.7
2018-11-21T12:11:57.420Z,18.8
2018-11-21T12:13:00.162Z,18.8
2018-11-21T12:14:02.073Z,18.8
2018-11-21T12:15:04.238Z,18.8
2018-11-21T12:16:06.394Z,18.9
2018-11-21T12:17:08.560Z,18.8
2018-11-21T12:18:09.884Z,18.8
2018-11-21T12:19:12.316Z,18.9
2018-11-21T12:20:14.749Z,18.9
2018-11-21T12:21:16.908Z,18.9
2018-11-21T12:22:19.064Z,18.7
2018-11-21T12:23:21.500Z,18.8
2018-11-21T12:24:23.934Z,18.8
2018-11-21T12:25:25.818Z,18.8
2018-11-21T12:26:27.988Z,18.9
2018-11-21T12:27:30.436Z,18.9
2018-11-21T12:28:32.568Z,18.8
2018-11-21T12:29:34.734Z,18.7
2018-11-21T12:30:36.328Z,18.9
2018-11-21T12:31:38.758Z,18.8
2018-11-21T12:32:40.617Z,18.8
2018-11-21T12:33:43.059Z,18.8
2018-11-21T12:34:45.221Z,18.9
2018-11-21T12:35:47.652Z,18.9
2018-11-21T12:36:49.804Z,18.9
2018-11-21T12:37:51.425Z,18.9
2018-11-21T12:38:53.846Z,18.9
2018-11-21T12:39:55.997Z,18.8
2018-11-21T12:40:58.436Z,18.8
2018-11-21T12:42:00.603Z,18.9
2018-11-21T12:43:02.777Z,18.8
2018-11-21T12:44:05.199Z,18.9
2018-11-21T12:45:07.358Z,18.8
2018-11-21T12:46:09.499Z,18.8
2018-11-21T12:47:11.926Z,18.9
2018-11-21T12:48:14.366Z,18.8
2018-11-21T12:49:16.228Z,18.9
2018-11-21T12:50:18.654Z,18.9
2018-11-21T12:51:21.080Z,18.9
2018-11-21T12:52:23.550Z,18.8
2018-11-21T12:53:25.984Z,18.8
2018-11-21T12:54:28.426Z,18.9
2018-11-21T12:55:30.848Z,19
2018-11-21T12:56:33.278Z,18.8
2018-11-21T12:57:35.695Z,18.9
2018-11-21T12:58:37.842Z,18.7
2018-11-21T12:59:40.266Z,18.8
2018-11-21T13:00:42.716Z,18.9
2018-11-21T13:01:44.595Z,18.9
2018-11-21T13:02:47.028Z,18.8
2018-11-21T13:03:49.459Z,18.9
2018-11-21T13:04:51.888Z,18.9
2018-11-21T13:05:54.316Z,18.9
2018-11-21T13:06:56.753Z,18.8
2018-11-21T13:07:59.172Z,18.8
2018-11-21T13:09:01.340Z,18.9
2018-11-21T13:10:03.780Z,18.8
2018-11-21T13:11:06.217Z,18.9
2018-11-21T13:12:08.639Z,18.8
2018-11-21T13:13:11.058Z,18.9
2018-11-21T13:14:13.489Z,18.9
2018-11-21T13:15:15.918Z,18.9
2018-11-21T13:16:18.360Z,18.9
2018-11-21T13:17:20.521Z,18.8
2018-11-21T13:18:22.961Z,18.8
2018-11-21T13:19:25.400Z,18.8
2018-11-21T13:20:27.569Z,18.8
2018-11-21T13:21:30.025Z,18.9
2018-11-21T13:22:32.457Z,18.8
2018-11-21T13:23:34.883Z,18.8
2018-11-21T13:24:36.760Z,18.9
2018-11-21T13:25:39.194Z,18.9
2018-11-21T13:26:41.632Z,18.8
2018-11-21T13:27:44.058Z,18.9
2018-11-21T13:28:46.241Z,19
2018-11-21T13:29:48.132Z,18.9
2018-11-21T13:30:50.556Z,18.9
2018-11-21T13:31:52.705Z,18.8
2018-11-21T13:32:55.134Z,18.8
2018-11-21T13:33:57.006Z,18.8
2018-11-21T13:34:59.148Z,18.9
2018-11-21T13:36:01.588Z,18.8
2018-11-21T13:37:03.725Z,18.8
2018-11-21T13:38:06.169Z,18.9
2018-11-21T13:39:08.059Z,18.7
2018-11-21T13:40:10.192Z,18.9
2018-11-21T13:41:12.370Z,18.9
2018-11-21T13:42:13.985Z,18.8
2018-11-21T13:43:16.148Z,18.9
2018-11-21T13:44:18.308Z,18.9
2018-11-21T13:45:20.172Z,18.8
2018-11-21T13:46:22.344Z,18.8
2018-11-21T13:47:24.513Z,19
2018-11-21T13:48:26.669Z,18.8
2018-11-21T13:49:29.106Z,18.8
2018-11-21T13:51:36.527Z,18.9
2018-11-21T13:52:38.962Z,18.8
2018-11-21T13:53:41.394Z,18.9
2018-11-21T13:54:43.563Z,18.9
2018-11-21T13:55:45.174Z,18.9
2018-11-21T13:56:47.620Z,18.8
2018-11-21T13:57:50.060Z,18.8
2018-11-21T13:58:51.665Z,18.9
2018-11-21T13:59:53.548Z,18.9
2018-11-21T14:00:55.723Z,18.8
2018-11-21T14:01:58.149Z,18.9
2018-11-21T14:03:00.586Z,18.8
2018-11-21T14:04:02.752Z,18.9
2018-11-21T14:05:04.383Z,19